Time;durP1;ratioP1;P1;durP2;ratioP2;P2;SDS_P1;SDS_P2;PMS_P1;PMS_P2;Temp;Humidity;BMP_temperature;BMP_pressure;BME280_temperature;BME280_humidity;BME280_pressure;Samples;Min_cycle;Max_cycle;Signal;HPM_P1;HPM_P2
2024/02/27 00:01:10;;;;;;;11.25;6.70;;;5.30;93.70;;;;;;5041808;28;21806;-65
2024/02/27 00:03:36;;;;;;;11.45;6.80;;;5.30;93.70;;;;;;5040091;28;20088;-66
2024/02/27 00:06:03;;;;;;;10.68;6.53;;;5.20;93.70;;;;;;5039825;28;20522;-66
2024/02/27 00:08:28;;;;;;;12.43;6.22;;;5.20;93.70;;;;;;5039828;28;20025;-65
2024/02/27 00:10:54;;;;;;;12.93;6.75;;;5.20;93.80;;;;;;5040296;28;20025;-67
2024/02/27 00:13:19;;;;;;;12.43;7.68;;;5.20;93.80;;;;;;5039521;28;20051;-67
2024/02/27 00:15:45;;;;;;;11.55;6.65;;;5.20;93.80;;;;;;5039642;28;20040;-66
2024/02/27 00:18:16;;;;;;;11.48;6.78;;;5.20;93.80;;;;;;5039885;28;20033;-64
2024/02/27 00:20:41;;;;;;;10.30;6.15;;;5.20;93.80;;;;;;5038543;28;20120;-67
2024/02/27 00:23:07;;;;;;;11.43;6.75;;;5.30;93.80;;;;;;5039267;28;20103;-66
2024/02/27 00:25:33;;;;;;;10.98;7.10;;;5.30;93.80;;;;;;5040558;28;20057;-66
2024/02/27 00:27:59;;;;;;;10.95;6.30;;;5.30;93.70;;;;;;5039177;28;20017;-66
2024/02/27 00:30:24;;;;;;;11.77;6.63;;;5.20;93.70;;;;;;5039860;28;21023;-66
2024/02/27 00:32:52;;;;;;;11.68;6.40;;;5.20;93.70;;;;;;5036535;28;20120;-64
2024/02/27 00:35:18;;;;;;;10.25;5.85;;;5.30;93.70;;;;;;5037235;28;20216;-64
2024/02/27 00:37:44;;;;;;;10.00;5.90;;;5.30;93.70;;;;;;5041785;28;20114;-66
2024/02/27 00:40:12;;;;;;;11.90;7.30;;;5.40;93.80;;;;;;5036748;28;20115;-67
2024/02/27 00:42:38;;;;;;;10.88;6.47;;;5.30;93.70;;;;;;5038041;28;20399;-64
2024/02/27 00:45:04;;;;;;;11.20;6.57;;;5.30;93.70;;;;;;5039785;28;20187;-67
2024/02/27 00:47:29;;;;;;;10.07;6.30;;;5.30;93.70;;;;;;5040221;28;20075;-66
2024/02/27 00:49:55;;;;;;;11.48;6.30;;;5.30;93.70;;;;;;5038769;28;21893;-66
2024/02/27 00:52:20;;;;;;;11.23;6.53;;;5.30;93.70;;;;;;5038069;28;20036;-65
2024/02/27 00:54:46;;;;;;;14.30;8.30;;;5.30;93.70;;;;;;5039369;28;20124;-68
2024/02/27 00:57:11;;;;;;;11.52;6.82;;;5.20;93.70;;;;;;5039571;28;20087;-67
2024/02/27 00:59:37;;;;;;;12.25;6.88;;;5.20;93.70;;;;;;5038516;28;20127;-63
2024/02/27 01:02:02;;;;;;;10.80;6.57;;;5.20;93.70;;;;;;5035253;28;20097;-64
2024/02/27 01:04:28;;;;;;;10.95;6.95;;;5.20;93.70;;;;;;5037165;28;20044;-66
2024/02/27 01:06:54;;;;;;;12.23;6.55;;;5.20;93.80;;;;;;5039399;28;20060;-65
2024/02/27 01:09:19;;;;;;;13.23;6.93;;;5.20;93.80;;;;;;5039323;28;20033;-64
2024/02/27 01:11:45;;;;;;;11.15;6.10;;;5.20;93.80;;;;;;5038183;28;20292;-66
2024/02/27 01:14:10;;;;;;;13.23;6.68;;;5.20;93.80;;;;;;5038172;28;20554;-67
2024/02/27 01:16:36;;;;;;;10.65;6.18;;;5.30;93.80;;;;;;5035479;28;20029;-65
2024/02/27 01:19:01;;;;;;;9.73;5.70;;;5.30;93.80;;;;;;5038524;28;20037;-63
2024/02/27 01:21:28;;;;;;;10.73;5.68;;;5.30;93.70;;;;;;5037816;28;20141;-65
2024/02/27 01:23:53;;;;;;;11.18;7.00;;;5.30;93.70;;;;;;5039396;28;20148;-66
2024/02/27 01:26:19;;;;;;;11.88;6.45;;;5.30;93.70;;;;;;5042357;28;20080;-66
2024/02/27 01:28:44;;;;;;;13.00;7.07;;;5.30;93.70;;;;;;5037067;28;20200;-66
2024/02/27 01:31:10;;;;;;;11.75;6.38;;;5.30;93.90;;;;;;5037917;28;20066;-64
2024/02/27 01:33:35;;;;;;;8.70;5.32;;;5.30;93.70;;;;;;5036622;28;20563;-64
2024/02/27 01:36:02;;;;;;;9.73;5.72;;;5.30;93.70;;;;;;5037583;28;20021;-66
2024/02/27 01:38:27;;;;;;;9.95;5.10;;;5.30;93.70;;;;;;5039447;28;20021;-66
2024/02/27 01:40:53;;;;;;;8.15;5.07;;;5.30;93.70;;;;;;5038894;28;20043;-66
2024/02/27 01:43:26;;;;;;;8.15;4.93;;;5.30;93.70;;;;;;5037259;28;20028;-66
2024/02/27 01:46:05;;;;;;;12.80;7.25;;;5.30;93.70;;;;;;5037221;28;20502;-66
2024/02/27 01:48:33;;;;;;;12.23;6.63;;;5.30;93.70;;;;;;5036331;28;20479;-65
2024/02/27 01:50:59;;;;;;;11.10;6.10;;;5.20;93.70;;;;;;5037544;28;20120;-65
2024/02/27 01:53:24;;;;;;;11.48;6.13;;;5.20;93.70;;;;;;5039706;28;20139;-65
2024/02/27 01:55:50;;;;;;;9.55;5.47;;;5.20;93.80;;;;;;5037991;28;20036;-66
2024/02/27 01:58:16;;;;;;;9.88;5.43;;;5.10;93.70;;;;;;5037529;28;20476;-64
2024/02/27 02:00:43;;;;;;;12.05;6.32;;;5.10;93.80;;;;;;5036138;28;20036;-65
2024/02/27 02:03:09;;;;;;;12.13;6.78;;;5.00;93.80;;;;;;5041794;28;20408;-66
2024/02/27 02:05:35;;;;;;;12.25;6.63;;;5.00;93.90;;;;;;5045108;28;20131;-66
2024/02/27 02:08:02;;;;;;;12.75;7.45;;;5.00;94.00;;;;;;5042534;28;20033;-66
2024/02/27 02:10:27;;;;;;;10.73;6.03;;;4.90;93.90;;;;;;5042197;28;20392;-66
2024/02/27 02:12:53;;;;;;;12.70;6.85;;;4.90;94.00;;;;;;5042239;28;20024;-66
2024/02/27 02:15:19;;;;;;;10.73;6.13;;;4.90;94.00;;;;;;5040531;28;20104;-64
2024/02/27 02:17:44;;;;;;;9.20;5.45;;;4.90;94.00;;;;;;5042783;28;20028;-65
2024/02/27 02:20:18;;;;;;;8.95;4.90;;;4.80;94.00;;;;;;5041515;28;20029;-66
2024/02/27 02:22:43;;;;;;;12.10;6.68;;;4.80;94.10;;;;;;5039965;28;20414;-66
2024/02/27 02:25:12;;;;;;;10.77;6.18;;;4.70;94.10;;;;;;5042285;28;20017;-65
2024/02/27 02:27:41;;;;;;;10.27;6.03;;;4.70;94.20;;;;;;5043446;28;20017;-66
2024/02/27 02:30:09;;;;;;;12.50;7.03;;;4.60;94.20;;;;;;5041134;28;20035;-67
2024/02/27 02:32:35;;;;;;;12.73;6.90;;;4.60;94.20;;;;;;5042894;28;20025;-64
2024/02/27 02:35:01;;;;;;;11.38;6.90;;;4.60;94.30;;;;;;5042186;28;20080;-66
2024/02/27 02:37:27;;;;;;;10.45;5.60;;;4.50;94.30;;;;;;5041311;28;20036;-67
2024/02/27 02:39:53;;;;;;;12.57;6.53;;;4.50;94.30;;;;;;5044705;28;20175;-67
2024/02/27 02:42:18;;;;;;;11.40;6.22;;;4.50;94.30;;;;;;5040435;28;20435;-67
2024/02/27 02:44:44;;;;;;;10.15;5.88;;;4.50;94.30;;;;;;5039752;28;20492;-65
2024/02/27 02:47:09;;;;;;;10.90;5.75;;;4.40;94.30;;;;;;5041459;28;20090;-66
2024/02/27 02:49:35;;;;;;;10.85;5.97;;;4.40;94.40;;;;;;5041974;28;20021;-67
2024/02/27 02:52:00;;;;;;;11.13;6.07;;;4.40;94.40;;;;;;5042490;28;20095;-66
2024/02/27 02:54:26;;;;;;;11.93;6.32;;;4.30;94.40;;;;;;5039510;28;20037;-65
2024/02/27 02:56:52;;;;;;;9.73;5.35;;;4.30;94.50;;;;;;5040448;28;20036;-65
2024/02/27 02:59:17;;;;;;;10.63;5.75;;;4.30;94.50;;;;;;5039849;28;20017;-64
2024/02/27 03:01:43;;;;;;;10.60;5.57;;;4.30;94.50;;;;;;5039163;28;20041;-64
2024/02/27 03:04:09;;;;;;;10.50;5.63;;;4.20;94.50;;;;;;5037977;28;20383;-66
2024/02/27 03:06:35;;;;;;;8.38;4.97;;;4.20;94.60;;;;;;5040534;28;20020;-62
2024/02/27 03:09:00;;;;;;;10.02;5.50;;;4.20;94.60;;;;;;5041393;28;20021;-65
2024/02/27 03:11:26;;;;;;;10.43;5.68;;;4.20;94.70;;;;;;5040365;28;20029;-65
2024/02/27 03:13:51;;;;;;;11.98;5.90;;;4.20;94.70;;;;;;5040765;28;20408;-64
2024/02/27 03:16:17;;;;;;;9.73;5.80;;;4.20;94.80;;;;;;5041214;28;20538;-65
2024/02/27 03:18:42;;;;;;;10.02;5.70;;;4.20;94.80;;;;;;5041200;28;20404;-65
2024/02/27 03:21:08;;;;;;;10.73;6.20;;;4.10;94.70;;;;;;5041197;28;20025;-63
2024/02/27 03:23:34;;;;;;;8.95;5.13;;;4.10;94.70;;;;;;5040024;28;20074;-65
2024/02/27 03:25:59;;;;;;;11.13;5.90;;;4.10;94.70;;;;;;5048162;28;20029;-67
2024/02/27 03:28:25;;;;;;;8.50;4.88;;;4.10;94.70;;;;;;5040444;28;20079;-65
2024/02/27 03:30:50;;;;;;;11.88;6.43;;;4.10;94.70;;;;;;5039869;28;20167;-64
2024/02/27 03:33:15;;;;;;;10.60;6.03;;;4.00;94.70;;;;;;5040442;28;20386;-64
2024/02/27 03:35:41;;;;;;;11.85;5.82;;;4.00;94.80;;;;;;5042228;28;20028;-65
2024/02/27 03:38:08;;;;;;;9.45;5.53;;;4.00;94.80;;;;;;5039812;28;20031;-65
2024/02/27 03:40:33;;;;;;;11.43;6.22;;;4.00;94.80;;;;;;5041313;28;20116;-66
2024/02/27 03:42:59;;;;;;;10.25;5.82;;;4.00;94.90;;;;;;5040119;28;20178;-65
2024/02/27 03:45:25;;;;;;;11.50;5.75;;;4.00;94.90;;;;;;5039394;28;20407;-64
2024/02/27 03:47:50;;;;;;;10.82;6.22;;;3.90;94.90;;;;;;5039861;28;20488;-66
2024/02/27 03:50:16;;;;;;;12.05;6.38;;;3.90;94.90;;;;;;5037264;28;20033;-64
2024/02/27 03:52:42;;;;;;;10.77;5.90;;;3.90;94.90;;;;;;5038791;28;20040;-65
2024/02/27 03:55:08;;;;;;;11.07;5.82;;;3.90;95.00;;;;;;5039145;28;20048;-66
2024/02/27 03:57:34;;;;;;;10.02;5.60;;;3.90;95.20;;;;;;5038882;28;20484;-66
2024/02/27 03:59:59;;;;;;;9.95;5.63;;;3.90;95.00;;;;;;5039659;28;21943;-66
2024/02/27 04:02:25;;;;;;;11.90;6.10;;;3.80;95.00;;;;;;5035585;28;20493;-64
2024/02/27 04:04:51;;;;;;;11.20;5.88;;;3.80;95.10;;;;;;5036715;28;20021;-65
2024/02/27 04:07:16;;;;;;;8.02;4.80;;;3.80;95.10;;;;;;5040015;28;20033;-67
2024/02/27 04:09:42;;;;;;;13.07;7.60;;;3.80;95.10;;;;;;5038765;28;20017;-65
2024/02/27 04:12:07;;;;;;;13.68;6.97;;;3.80;95.10;;;;;;5039516;28;20029;-66
2024/02/27 04:14:33;;;;;;;11.52;5.97;;;3.80;95.20;;;;;;5039620;28;20051;-66
2024/02/27 04:16:59;;;;;;;9.63;5.45;;;3.80;95.20;;;;;;5039454;28;20024;-66
2024/02/27 04:19:25;;;;;;;13.00;6.53;;;3.80;95.20;;;;;;5038460;28;20013;-65
2024/02/27 04:21:50;;;;;;;10.68;6.47;;;3.80;95.20;;;;;;5037165;28;20033;-66
2024/02/27 04:24:16;;;;;;;10.93;6.45;;;3.70;95.20;;;;;;5034454;28;20024;-66
2024/02/27 04:26:42;;;;;;;10.98;6.00;;;3.70;95.30;;;;;;5039231;28;20017;-66
2024/02/27 04:29:08;;;;;;;9.98;5.55;;;3.70;95.30;;;;;;5038172;28;20090;-66
2024/02/27 04:31:33;;;;;;;10.55;5.85;;;3.70;95.30;;;;;;5038343;28;20026;-66
2024/02/27 04:33:59;;;;;;;11.55;6.10;;;3.70;95.40;;;;;;5041505;28;20048;-64
2024/02/27 04:36:24;;;;;;;11.73;6.15;;;3.70;95.40;;;;;;5042425;28;20400;-67
2024/02/27 04:38:50;;;;;;;12.63;6.63;;;3.70;95.40;;;;;;5037847;28;20039;-66
2024/02/27 04:41:16;;;;;;;11.63;6.40;;;3.70;95.50;;;;;;5037685;28;20025;-65
2024/02/27 04:43:41;;;;;;;11.48;6.63;;;3.70;95.50;;;;;;5036884;28;20036;-64
2024/02/27 04:46:07;;;;;;;12.45;6.90;;;3.70;95.60;;;;;;5038020;28;20025;-66
2024/02/27 04:48:32;;;;;;;13.43;7.32;;;3.60;95.60;;;;;;5037942;28;20028;-66
2024/02/27 04:50:58;;;;;;;12.55;6.45;;;3.60;95.60;;;;;;5042710;28;20047;-66
2024/02/27 04:53:23;;;;;;;13.57;6.60;;;3.60;95.60;;;;;;5038855;28;20059;-67
2024/02/27 04:55:49;;;;;;;11.75;6.25;;;3.60;95.60;;;;;;5043681;28;20383;-66
2024/02/27 04:58:14;;;;;;;14.27;8.02;;;3.60;95.60;;;;;;5041949;28;20029;-67
2024/02/27 05:00:40;;;;;;;12.57;6.43;;;3.60;95.60;;;;;;5044181;28;20021;-65
2024/02/27 05:03:06;;;;;;;12.90;7.50;;;3.60;95.60;;;;;;5042390;28;20092;-66
2024/02/27 05:05:31;;;;;;;13.32;7.05;;;3.60;95.60;;;;;;5041964;28;20068;-65
2024/02/27 05:07:57;;;;;;;13.98;7.25;;;3.60;95.60;;;;;;5039153;28;20025;-65
2024/02/27 05:10:22;;;;;;;11.95;6.70;;;3.60;95.70;;;;;;5038682;28;20111;-64
2024/02/27 05:12:48;;;;;;;12.13;6.25;;;3.60;95.70;;;;;;5041799;28;20025;-66
2024/02/27 05:15:13;;;;;;;12.13;5.93;;;3.60;95.70;;;;;;5046947;28;20070;-66
2024/02/27 05:17:39;;;;;;;11.90;6.10;;;3.60;95.70;;;;;;5037983;28;20063;-64
2024/02/27 05:20:05;;;;;;;11.63;6.65;;;3.60;95.70;;;;;;5039105;28;20025;-65
2024/02/27 05:22:30;;;;;;;13.88;7.22;;;3.60;95.70;;;;;;5038274;28;20186;-66
2024/02/27 05:24:56;;;;;;;11.52;6.13;;;3.60;95.70;;;;;;5039220;28;20104;-67
2024/02/27 05:27:21;;;;;;;11.73;6.80;;;3.60;95.80;;;;;;5044766;28;20551;-66
2024/02/27 05:29:47;;;;;;;11.20;6.63;;;3.70;95.90;;;;;;5043012;28;20504;-67
2024/02/27 05:32:13;;;;;;;12.07;6.30;;;3.70;95.90;;;;;;5045029;28;20033;-64
2024/02/27 05:34:38;;;;;;;12.43;7.18;;;3.70;95.80;;;;;;5039432;28;20029;-65
2024/02/27 05:37:04;;;;;;;14.57;7.20;;;3.70;95.80;;;;;;5043286;28;20068;-65
2024/02/27 05:39:29;;;;;;;12.65;6.40;;;3.70;95.80;;;;;;5048043;28;20044;-66
2024/02/27 05:41:55;;;;;;;11.85;6.18;;;3.70;95.80;;;;;;5043578;28;20032;-65
2024/02/27 05:44:20;;;;;;;11.75;6.80;;;3.70;95.80;;;;;;5049385;28;20025;-64
2024/02/27 05:46:46;;;;;;;11.77;6.28;;;3.70;95.80;;;;;;5040976;28;20025;-67
2024/02/27 05:49:11;;;;;;;12.65;6.75;;;3.80;95.90;;;;;;5041976;28;20040;-67
2024/02/27 05:51:40;;;;;;;11.90;6.80;;;3.70;96.00;;;;;;5042320;28;20036;-66
2024/02/27 05:54:06;;;;;;;13.63;6.57;;;3.70;95.90;;;;;;5043599;28;20139;-65
2024/02/27 05:56:31;;;;;;;13.40;7.15;;;3.70;95.90;;;;;;5042258;28;20112;-64
2024/02/27 05:58:57;;;;;;;11.48;6.53;;;3.70;96.00;;;;;;5041305;28;20033;-66
2024/02/27 06:01:23;;;;;;;13.02;7.18;;;3.80;96.00;;;;;;5042029;28;20079;-64
2024/02/27 06:03:48;;;;;;;13.00;7.20;;;3.80;96.00;;;;;;5042330;28;20103;-66
2024/02/27 06:06:14;;;;;;;11.90;6.30;;;3.70;96.00;;;;;;5043294;28;20125;-66
2024/02/27 06:08:40;;;;;;;11.98;6.10;;;3.70;96.00;;;;;;5041452;28;20048;-63
2024/02/27 06:11:06;;;;;;;11.60;6.28;;;3.80;96.10;;;;;;5041334;28;20033;-66
2024/02/27 06:13:31;;;;;;;12.43;6.05;;;3.80;96.10;;;;;;5041381;28;20033;-64
2024/02/27 06:15:57;;;;;;;10.80;6.30;;;3.70;96.20;;;;;;5043824;28;20025;-67
2024/02/27 06:18:22;;;;;;;9.73;5.65;;;3.70;96.20;;;;;;5040581;28;20044;-66
2024/02/27 06:23:32;;;;;;;9.30;4.90;;;3.80;96.10;;;;;;5046985;28;20055;-65
2024/02/27 06:25:57;;;;;;;9.55;5.15;;;3.80;96.10;;;;;;5041449;28;20598;-65
2024/02/27 06:28:24;;;;;;;9.30;5.13;;;3.80;96.10;;;;;;5040958;28;20104;-63
2024/02/27 06:30:49;;;;;;;9.10;4.93;;;3.90;96.10;;;;;;5040906;28;20545;-65
2024/02/27 06:33:15;;;;;;;8.90;4.70;;;3.90;96.10;;;;;;5043042;28;20037;-64
2024/02/27 06:35:40;;;;;;;7.63;4.43;;;3.90;96.10;;;;;;5042970;28;20498;-66
2024/02/27 06:38:06;;;;;;;8.82;5.07;;;3.90;96.10;;;;;;5048763;28;20383;-66
2024/02/27 06:40:32;;;;;;;9.07;5.43;;;3.90;96.10;;;;;;5049932;28;20029;-66
2024/02/27 06:42:58;;;;;;;9.55;5.32;;;3.90;96.10;;;;;;5049396;28;20375;-66
2024/02/27 06:45:23;;;;;;;10.90;6.00;;;3.90;96.20;;;;;;5049270;28;20816;-66
2024/02/27 06:47:49;;;;;;;10.23;5.40;;;3.90;96.20;;;;;;5048163;28;20037;-67
2024/02/27 06:50:16;;;;;;;10.00;5.53;;;3.90;96.20;;;;;;5047522;28;20056;-66
2024/02/27 06:52:41;;;;;;;10.38;5.55;;;3.90;96.10;;;;;;5042688;28;20094;-66
2024/02/27 06:55:07;;;;;;;8.68;4.40;;;4.00;96.10;;;;;;5040596;28;20475;-66
2024/02/27 06:57:32;;;;;;;9.27;5.00;;;4.00;96.10;;;;;;5054084;28;20026;-66
2024/02/27 06:59:59;;;;;;;12.27;6.22;;;4.00;96.00;;;;;;5051590;28;20025;-67
2024/02/27 07:02:25;;;;;;;11.27;5.95;;;4.00;96.00;;;;;;5047903;28;20096;-66
2024/02/27 07:04:50;;;;;;;9.48;5.07;;;4.00;96.00;;;;;;5048395;28;20100;-65
2024/02/27 07:07:16;;;;;;;11.52;6.15;;;4.00;96.00;;;;;;5047767;28;20048;-66
2024/02/27 07:09:41;;;;;;;9.50;4.90;;;4.00;96.00;;;;;;5045843;28;20493;-67
2024/02/27 07:12:08;;;;;;;11.90;6.05;;;4.00;96.00;;;;;;5044839;28;20044;-66
2024/02/27 07:14:38;;;;;;;10.38;5.45;;;4.00;96.00;;;;;;5045522;28;20017;-67
2024/02/27 07:17:04;;;;;;;9.15;4.80;;;4.00;96.00;;;;;;5041784;28;20078;-67
2024/02/27 07:19:29;;;;;;;8.68;4.97;;;4.10;96.00;;;;;;5049090;28;20029;-64
2024/02/27 07:21:55;;;;;;;8.77;4.95;;;4.10;96.00;;;;;;5046051;28;20437;-66
2024/02/27 07:24:20;;;;;;;12.10;5.97;;;4.10;96.30;;;;;;5043369;28;20033;-67
2024/02/27 07:26:46;;;;;;;9.85;5.53;;;4.10;96.00;;;;;;5042635;28;20040;-67
2024/02/27 07:29:13;;;;;;;9.30;4.78;;;4.10;96.30;;;;;;5044665;28;20104;-66
2024/02/27 07:31:39;;;;;;;8.73;5.28;;;4.10;95.90;;;;;;5050478;28;20687;-66
2024/02/27 07:34:05;;;;;;;8.60;4.32;;;4.10;95.90;;;;;;5051458;28;20112;-66
2024/02/27 07:36:30;;;;;;;11.70;6.10;;;4.10;96.00;;;;;;5055512;28;20692;-66
2024/02/27 07:38:56;;;;;;;8.48;4.82;;;4.10;95.90;;;;;;5041130;28;20087;-65
2024/02/27 07:41:21;;;;;;;11.05;5.82;;;4.10;96.10;;;;;;5046679;28;20407;-66
2024/02/27 07:43:47;;;;;;;9.57;5.35;;;4.10;96.10;;;;;;5050684;28;20531;-66
2024/02/27 07:46:13;;;;;;;12.20;6.22;;;4.10;96.10;;;;;;5050652;28;20052;-65
2024/02/27 07:48:45;;;;;;;12.05;6.40;;;4.10;96.00;;;;;;5047496;28;20424;-65
2024/02/27 07:51:27;;;;;;;9.82;5.60;;;4.10;95.90;;;;;;5050873;28;20028;-66
2024/02/27 07:53:53;;;;;;;9.93;5.82;;;4.10;95.90;;;;;;5041080;28;20543;-65
2024/02/27 07:56:19;;;;;;;7.95;4.70;;;4.20;95.80;;;;;;5044604;28;20119;-66
2024/02/27 07:58:44;;;;;;;9.45;5.35;;;4.20;95.80;;;;;;5050986;28;20029;-66
2024/02/27 08:01:10;;;;;;;9.30;5.22;;;4.20;95.70;;;;;;5051492;28;20044;-66
2024/02/27 08:03:36;;;;;;;8.55;4.40;;;4.20;95.70;;;;;;5052001;28;20021;-66
2024/02/27 08:06:02;;;;;;;7.97;4.32;;;4.30;95.70;;;;;;5050689;28;20075;-66
2024/02/27 08:08:28;;;;;;;9.45;5.05;;;4.40;95.70;;;;;;5051472;28;20043;-66
2024/02/27 08:10:55;;;;;;;9.07;5.40;;;4.40;95.60;;;;;;5051502;28;20040;-67
2024/02/27 08:13:21;;;;;;;10.50;5.38;;;4.40;95.50;;;;;;5048842;28;20056;-66
2024/02/27 08:15:47;;;;;;;9.90;5.50;;;4.50;95.50;;;;;;5051796;28;20028;-66
2024/02/27 08:18:12;;;;;;;9.43;5.13;;;4.50;95.50;;;;;;5045942;28;20044;-66
2024/02/27 08:20:38;;;;;;;11.73;6.22;;;4.50;95.50;;;;;;5044349;28;20142;-65
2024/02/27 08:23:03;;;;;;;10.18;5.57;;;4.60;95.40;;;;;;5051574;28;20028;-66
2024/02/27 08:25:29;;;;;;;12.05;6.07;;;4.60;95.40;;;;;;5048632;28;20058;-66
2024/02/27 08:27:55;;;;;;;11.30;5.47;;;4.70;95.40;;;;;;5051154;28;20028;-64
2024/02/27 08:30:20;;;;;;;12.32;6.65;;;4.80;95.30;;;;;;5048669;28;20078;-65
2024/02/27 08:32:46;;;;;;;9.73;5.38;;;4.80;95.10;;;;;;5048927;28;20029;-67
2024/02/27 08:35:11;;;;;;;8.95;5.30;;;4.70;94.90;;;;;;5051409;28;20021;-66
2024/02/27 08:37:38;;;;;;;8.73;5.30;;;4.70;95.00;;;;;;5045190;28;20052;-63
2024/02/27 08:40:04;;;;;;;10.95;5.80;;;4.60;94.90;;;;;;5046076;28;20534;-66
2024/02/27 08:42:30;;;;;;;9.07;4.93;;;4.60;95.00;;;;;;5050902;28;20029;-65
2024/02/27 08:44:56;;;;;;;11.35;5.82;;;4.50;95.10;;;;;;5051067;28;20091;-67
2024/02/27 08:47:22;;;;;;;10.02;4.68;;;4.50;95.20;;;;;;5053135;28;20032;-66
2024/02/27 08:49:48;;;;;;;9.40;5.05;;;4.50;95.40;;;;;;5050857;28;20017;-66
2024/02/27 08:52:13;;;;;;;8.30;4.40;;;4.60;95.40;;;;;;5049150;28;20025;-65
2024/02/27 08:54:39;;;;;;;8.68;5.40;;;4.60;95.50;;;;;;5048339;28;20108;-63
2024/02/27 08:57:04;;;;;;;12.00;6.88;;;4.80;95.40;;;;;;5049908;28;20434;-66
2024/02/27 08:59:30;;;;;;;11.77;6.85;;;4.70;95.20;;;;;;5052939;28;20695;-66
2024/02/27 09:01:56;;;;;;;12.40;7.03;;;4.70;95.20;;;;;;5049652;28;20029;-66
2024/02/27 09:04:22;;;;;;;12.50;6.47;;;4.70;95.20;;;;;;5050677;28;20021;-67
2024/02/27 09:06:47;;;;;;;11.07;6.28;;;4.70;95.10;;;;;;5050723;28;20514;-67
2024/02/27 09:09:13;;;;;;;10.82;6.07;;;4.70;95.20;;;;;;5048278;28;20104;-66
2024/02/27 09:11:38;;;;;;;9.77;4.57;;;4.70;95.10;;;;;;5051622;28;20100;-66
2024/02/27 09:14:05;;;;;;;8.27;4.50;;;4.80;95.30;;;;;;5047206;28;20024;-67
2024/02/27 09:16:30;;;;;;;7.65;4.50;;;4.90;95.30;;;;;;5051593;28;20021;-66
2024/02/27 09:18:56;;;;;;;8.32;4.55;;;5.00;95.10;;;;;;5050798;28;20044;-67
2024/02/27 09:21:22;;;;;;;9.63;6.07;;;5.00;95.10;;;;;;5051039;28;20474;-67
2024/02/27 09:23:50;;;;;;;8.88;5.00;;;5.10;95.10;;;;;;5051117;28;20029;-66
2024/02/27 09:26:16;;;;;;;8.77;5.38;;;5.20;95.00;;;;;;5046683;28;20024;-65
2024/02/27 09:28:41;;;;;;;11.25;5.80;;;5.20;94.80;;;;;;5048640;28;21201;-66
2024/02/27 09:31:08;;;;;;;8.88;5.07;;;5.20;94.70;;;;;;5046085;28;20500;-63
2024/02/27 09:33:33;;;;;;;9.40;4.75;;;5.20;94.70;;;;;;5046308;28;20035;-64
2024/02/27 09:35:59;;;;;;;9.38;5.03;;;5.20;94.80;;;;;;5049414;28;20041;-67
2024/02/27 09:38:24;;;;;;;9.05;5.07;;;5.20;94.80;;;;;;5048899;28;20075;-64
2024/02/27 09:40:54;;;;;;;10.57;4.57;;;5.20;94.80;;;;;;5049362;28;20083;-66
2024/02/27 09:43:23;;;;;;;9.77;5.13;;;5.20;94.70;;;;;;5049189;28;20017;-63
2024/02/27 09:45:48;;;;;;;7.40;4.05;;;5.20;94.70;;;;;;5044679;28;20024;-67
2024/02/27 09:48:17;;;;;;;7.93;4.35;;;5.30;94.70;;;;;;5048252;28;20025;-66
2024/02/27 09:50:45;;;;;;;8.15;4.78;;;5.30;94.70;;;;;;5046351;28;20028;-66
2024/02/27 09:53:12;;;;;;;7.30;4.20;;;5.30;94.70;;;;;;5043806;28;20059;-67
2024/02/27 09:55:37;;;;;;;6.35;3.90;;;5.40;94.70;;;;;;5054569;28;20090;-67
2024/02/27 09:58:03;;;;;;;7.53;4.18;;;5.50;94.60;;;;;;5049137;28;20108;-66
2024/02/27 10:00:29;;;;;;;6.38;3.90;;;5.50;94.50;;;;;;5036688;28;21315;-66
2024/02/27 10:02:55;;;;;;;5.88;3.58;;;5.70;94.50;;;;;;5048575;28;20025;-66
2024/02/27 10:05:22;;;;;;;4.93;3.13;;;5.80;94.40;;;;;;5051030;28;20547;-65
2024/02/27 10:07:49;;;;;;;6.60;4.10;;;6.00;94.20;;;;;;5051597;28;20411;-66
2024/02/27 10:10:16;;;;;;;7.53;4.15;;;6.00;93.90;;;;;;5051511;28;20025;-66
2024/02/27 10:12:42;;;;;;;6.43;4.07;;;6.00;93.80;;;;;;5051213;28;20763;-66
2024/02/27 10:15:08;;;;;;;5.38;3.10;;;6.10;93.90;;;;;;5052549;28;20021;-66
2024/02/27 10:17:35;;;;;;;7.07;4.63;;;6.20;93.80;;;;;;5046303;28;20036;-66
2024/02/27 10:20:04;;;;;;;7.38;3.90;;;6.20;93.60;;;;;;5049588;28;20060;-67
2024/02/27 10:22:31;;;;;;;5.85;3.72;;;6.30;93.60;;;;;;5052335;28;20090;-67
2024/02/27 10:25:10;;;;;;;9.27;5.28;;;6.30;93.50;;;;;;5055470;28;20021;-67
2024/02/27 10:27:37;;;;;;;9.50;5.55;;;6.40;93.30;;;;;;5051980;28;20013;-67
2024/02/27 10:30:05;;;;;;;7.30;4.30;;;6.20;93.10;;;;;;5054996;28;20025;-67
2024/02/27 10:32:32;;;;;;;7.15;4.13;;;6.20;93.60;;;;;;5051008;28;20037;-66
2024/02/27 10:34:57;;;;;;;8.05;4.85;;;6.30;93.70;;;;;;5055081;28;20032;-67
2024/02/27 10:37:28;;;;;;;8.93;5.28;;;6.20;93.30;;;;;;5051901;28;20020;-67
2024/02/27 10:39:56;;;;;;;7.55;4.32;;;6.20;93.40;;;;;;5055141;28;20032;-66
2024/02/27 10:42:22;;;;;;;9.85;5.50;;;6.30;93.70;;;;;;5054602;28;20021;-64
2024/02/27 10:44:48;;;;;;;8.85;4.95;;;6.30;93.30;;;;;;5055320;28;20024;-66
2024/02/27 10:47:14;;;;;;;7.10;4.40;;;6.30;93.60;;;;;;5057233;28;20021;-67
2024/02/27 10:49:41;;;;;;;8.23;4.70;;;6.40;93.60;;;;;;5055466;28;20395;-67
2024/02/27 10:52:07;;;;;;;6.03;3.75;;;6.40;93.40;;;;;;5053804;28;20029;-65
2024/02/27 10:54:33;;;;;;;5.30;3.20;;;6.50;93.30;;;;;;5054760;28;20160;-66
2024/02/27 10:56:59;;;;;;;6.30;3.92;;;6.70;93.20;;;;;;5054079;28;20025;-66
2024/02/27 10:59:27;;;;;;;5.25;3.08;;;6.80;93.10;;;;;;5051755;28;20016;-67
2024/02/27 11:01:54;;;;;;;7.65;4.60;;;6.80;92.90;;;;;;5054278;28;20040;-66
2024/02/27 11:04:28;;;;;;;9.63;5.90;;;6.80;92.70;;;;;;5054734;28;20052;-65
2024/02/27 11:06:59;;;;;;;9.38;5.68;;;6.80;92.60;;;;;;5054177;28;20021;-66
2024/02/27 11:09:27;;;;;;;10.32;6.20;;;6.70;92.60;;;;;;5051439;28;20028;-66
2024/02/27 11:11:58;;;;;;;9.10;5.75;;;6.50;92.50;;;;;;5054549;28;20021;-65
2024/02/27 11:14:25;;;;;;;7.40;4.70;;;6.30;92.90;;;;;;5054663;28;20032;-66
2024/02/27 11:16:58;;;;;;;5.95;4.03;;;6.50;93.20;;;;;;5054376;28;20029;-66
2024/02/27 11:19:26;;;;;;;7.03;4.25;;;6.60;93.10;;;;;;5050225;28;20032;-66
2024/02/27 11:21:52;;;;;;;6.50;3.70;;;6.70;93.10;;;;;;5053240;28;20491;-65
2024/02/27 11:24:19;;;;;;;5.68;3.60;;;6.90;93.00;;;;;;5050381;28;20100;-66
2024/02/27 11:26:45;;;;;;;6.30;4.00;;;7.10;92.90;;;;;;5054184;28;20021;-65
2024/02/27 11:29:13;;;;;;;6.32;3.65;;;7.20;92.60;;;;;;5055670;28;20372;-65
2024/02/27 11:31:39;;;;;;;8.13;4.40;;;7.30;92.40;;;;;;5055208;28;20596;-66
2024/02/27 11:34:07;;;;;;;7.13;4.20;;;7.40;92.30;;;;;;5049382;28;20098;-64
2024/02/27 11:36:33;;;;;;;5.10;3.22;;;7.50;92.20;;;;;;5053672;28;20025;-66
2024/02/27 11:38:59;;;;;;;6.72;4.43;;;7.50;92.20;;;;;;5054246;28;20031;-65
2024/02/27 11:41:26;;;;;;;6.97;4.38;;;7.40;91.80;;;;;;5057179;28;20028;-65
2024/02/27 11:43:55;;;;;;;5.93;3.85;;;7.50;92.00;;;;;;5054394;28;20056;-66
2024/02/27 11:46:26;;;;;;;5.50;3.00;;;7.70;92.00;;;;;;5054607;28;20021;-66
2024/02/27 11:48:52;;;;;;;5.20;3.40;;;7.80;91.90;;;;;;5050144;28;20108;-64
2024/02/27 11:51:32;;;;;;;5.70;3.38;;;7.90;91.80;;;;;;5056523;28;20665;-64
2024/02/27 11:53:58;;;;;;;5.35;3.72;;;8.00;91.70;;;;;;5053235;28;20519;-63
2024/02/27 11:56:25;;;;;;;5.90;3.38;;;8.00;91.40;;;;;;5053511;28;20065;-64
2024/02/27 11:58:52;;;;;;;5.15;3.25;;;8.10;91.40;;;;;;5053622;28;20037;-66
2024/02/27 12:01:18;;;;;;;4.45;3.03;;;8.10;91.30;;;;;;5056310;28;20104;-66
2024/02/27 12:03:45;;;;;;;4.72;3.13;;;8.10;91.20;;;;;;5054229;28;20063;-65
2024/02/27 12:06:11;;;;;;;4.85;3.35;;;8.00;91.30;;;;;;5053082;28;20102;-66
2024/02/27 12:08:52;;;;;;;5.70;3.35;;;7.90;91.40;;;;;;5053239;28;20028;-64
2024/02/27 12:11:20;;;;;;;6.83;3.90;;;8.10;91.70;;;;;;5056040;28;20032;-65
2024/02/27 12:13:49;;;;;;;7.63;5.13;;;8.20;91.30;;;;;;5054103;28;20271;-66
2024/02/27 12:16:25;;;;;;;9.85;5.68;;;8.00;91.00;;;;;;5053249;28;20036;-65
2024/02/27 12:18:56;;;;;;;9.70;5.78;;;7.70;90.90;;;;;;5040933;28;20562;-66
2024/02/27 12:21:33;;;;;;;6.25;3.75;;;7.60;91.50;;;;;;5048923;28;20021;-65
2024/02/27 12:24:19;;;;;;;7.22;4.55;;;7.80;91.90;;;;;;5046333;28;20493;-65
2024/02/27 12:26:46;;;;;;;5.93;3.90;;;7.80;91.50;;;;;;5049199;28;20040;-64
2024/02/27 12:29:14;;;;;;;9.10;5.15;;;7.90;91.50;;;;;;5049663;28;20495;-64
2024/02/27 12:31:41;;;;;;;8.80;5.47;;;7.70;91.20;;;;;;5049322;28;20116;-65
2024/02/27 12:34:06;;;;;;;6.57;3.88;;;7.70;91.50;;;;;;5049098;28;20380;-66
2024/02/27 12:36:32;;;;;;;6.28;3.90;;;7.90;91.70;;;;;;5035547;28;20036;-65
2024/02/27 12:38:58;;;;;;;6.00;3.65;;;8.10;91.60;;;;;;5047059;28;20021;-64
2024/02/27 12:41:24;;;;;;;5.13;3.55;;;8.40;91.60;;;;;;5042165;28;20521;-66
2024/02/27 12:43:50;;;;;;;5.50;3.53;;;8.70;91.40;;;;;;5046763;28;20025;-66
2024/02/27 12:46:16;;;;;;;4.20;2.65;;;8.90;91.20;;;;;;5047447;28;20380;-66
2024/02/27 12:48:43;;;;;;;6.10;3.80;;;9.10;91.00;;;;;;5040979;28;20021;-65